(°C)
33°
32°
31°
30°
28°
27°
26°
(°C)
34°
33°
32°
31°
30°
30°
30°
DDN
DNy
DNy
DNy
DNy
DNy
DDN
(km/h)
14-24
15-24
14-23
13-22
13-21
11-20
9-18
(mm)
0
0
0
0
0
0
0
(%)
1
1
1
0
0
0
0

Napfelkelte

/ 41.7°
sun-icon
UV 10
06:42
20:09
Hold (fogyó sarló) (335°)
05:40
18:28

METAR Tampa (KTPF)-ért

Idő Feltételek Hőmérséklet/
Harmatpont
Szél Látási viszonyok Időjárás Felhők Légnyomás Módosítás Nyers
VFR 33°C / 19°C 220º 10kt >10km - Broken Clouds 10000ft - KTPF 092035Z AUTO 22010KT 10SM BKN100 OVC120 33/19 A3003 RMK AO2
VFR 33°C / 17°C 220º 5kt >10km - Broken Clouds 10000ft - KTPF 092015Z AUTO 22005KT 10SM BKN100 OVC120 33/17 A3004 RMK AO2
VFR 33°C / 16°C 200º 4kt >10km - Broken Clouds 10000ft - KTPF 091955Z AUTO 20004KT 10SM BKN100 BKN120 33/16 A3004 RMK AO2
VFR 33°C / 16°C 200º 4kt >10km - Broken Clouds 10000ft - KTPF 091935Z AUTO 20004KT 10SM BKN100 BKN120 33/16 A3005 RMK AO2
VFR 33°C / 16°C 220º 3kt >10km - Scattered Clouds 9000ft - KTPF 091915Z AUTO 22003KT 10SM SCT090 BKN110 33/16 A3007 RMK AO2
VFR 33°C / 16°C 230º 4kt >10km - Broken Clouds 10000ft - KTPF 091855Z AUTO 23004KT 10SM BKN100 33/16 A3008 RMK AO2
VFR 32°C / 16°C 240º 4kt >10km - Overcast 10000ft - KTPF 091835Z AUTO 24004KT 10SM OVC100 32/16 A3008 RMK AO2
VFR 32°C / 16°C 210º 4kt >10km - Scattered Clouds 8000ft - KTPF 091815Z AUTO 21004KT 10SM SCT080 BKN100 32/16 A3008 RMK AO2
VFR 32°C / 17°C 200º 5kt >10km - Scattered Clouds 7000ft - KTPF 091755Z AUTO 20005KT 10SM SCT070 SCT090 BKN110 32/17 A3009 RMK AO2
VFR 32°C / 16°C 180º 4kt >10km - Scattered Clouds 10000ft - KTPF 091735Z AUTO 18004KT 10SM SCT100 SCT120 32/16 A3009 RMK AO2
VFR 32°C / 16°C 170º 7kt >10km - Scattered Clouds 9500ft - KTPF 091715Z AUTO 17007KT 10SM SCT095 SCT120 32/16 A3010 RMK AO2
VFR 31°C / 16°C 150º 7kt >10km - Scattered Clouds 8000ft - KTPF 091655Z AUTO 15007KT 10SM SCT080 BKN100 31/16 A3010 RMK AO2
VFR 32°C / 16°C 150º 8kt >10km - Broken Clouds 9000ft - KTPF 091635Z AUTO 15008KT 10SM BKN090 BKN120 32/16 A3011 RMK AO2
VFR 31°C / 16°C 150º 9kt >10km - Scattered Clouds 11000ft - KTPF 091615Z AUTO 15009KT 10SM SCT110 31/16 A3012 RMK AO2
VFR 31°C / 15°C 140º 11kt >10km - Clear - KTPF 091555Z AUTO 14011KT 10SM CLR 31/15 A3012 RMK AO2
VFR 30°C / 17°C 140º 10kt Gust 15kt >10km - Broken Clouds 10000ft - KTPF 091535Z AUTO 14010G15KT 10SM BKN100 BKN120 30/17 A3013 RMK AO2
VFR 30°C / 17°C 140º 13kt Gust 17kt >10km - Overcast 10000ft - KTPF 091515Z AUTO 14013G17KT 10SM OVC100 30/17 A3013 RMK AO2
VFR 29°C / 17°C 140º 10kt Gust 16kt >10km - Overcast 11000ft - KTPF 091455Z AUTO 14010G16KT 10SM OVC110 29/17 A3014 RMK AO2
VFR 28°C / 17°C 150º 10kt >10km - Overcast 10000ft - KTPF 091435Z AUTO 15010KT 10SM OVC100 28/17 A3014 RMK AO2
VFR 28°C / 18°C 160º 9kt >10km - Overcast 10000ft - KTPF 091415Z AUTO 16009KT 10SM OVC100 28/18 A3013 RMK AO2
VFR 27°C / 18°C 150º 10kt Gust 17kt >10km - Overcast 10000ft - KTPF 091355Z AUTO 15010G17KT 10SM OVC100 27/18 A3013 RMK AO2
VFR 27°C / 19°C 150º 11kt >10km - Broken Clouds 11000ft - KTPF 091335Z AUTO 15011KT 10SM BKN110 27/19 A3013 RMK AO2
VFR 26°C / 18°C 140º 9kt Gust 14kt >10km - Scattered Clouds 11000ft - KTPF 091315Z AUTO 14009G14KT 10SM SCT110 26/18 A3012 RMK AO2
VFR 25°C / 18°C 140º 8kt >10km - Broken Clouds 11000ft - KTPF 091255Z AUTO 14008KT 10SM BKN110 25/18 A3012 RMK AO2

VFR

33°C / 19°C

[Több]
Szél 220º 10kt
Látási viszonyok >10km
Időjárás -
Felhők Broken Clouds 10000ft
Légnyomás
Módosítás -
Nyers KTPF 092035Z AUTO 22010KT 10SM BKN100 OVC120 33/19 A3003 RMK AO2

VFR

33°C / 17°C

[Több]
Szél 220º 5kt
Látási viszonyok >10km
Időjárás -
Felhők Broken Clouds 10000ft
Légnyomás
Módosítás -
Nyers KTPF 092015Z AUTO 22005KT 10SM BKN100 OVC120 33/17 A3004 RMK AO2

VFR

33°C / 16°C

[Több]
Szél 200º 4kt
Látási viszonyok >10km
Időjárás -
Felhők Broken Clouds 10000ft
Légnyomás
Módosítás -
Nyers KTPF 091955Z AUTO 20004KT 10SM BKN100 BKN120 33/16 A3004 RMK AO2

VFR

33°C / 16°C

[Több]
Szél 200º 4kt
Látási viszonyok >10km
Időjárás -
Felhők Broken Clouds 10000ft
Légnyomás
Módosítás -
Nyers KTPF 091935Z AUTO 20004KT 10SM BKN100 BKN120 33/16 A3005 RMK AO2

VFR

33°C / 16°C

[Több]
Szél 220º 3kt
Látási viszonyok >10km
Időjárás -
Felhők Scattered Clouds 9000ft
Légnyomás
Módosítás -
Nyers KTPF 091915Z AUTO 22003KT 10SM SCT090 BKN110 33/16 A3007 RMK AO2

VFR

33°C / 16°C

[Több]
Szél 230º 4kt
Látási viszonyok >10km
Időjárás -
Felhők Broken Clouds 10000ft
Légnyomás
Módosítás -
Nyers KTPF 091855Z AUTO 23004KT 10SM BKN100 33/16 A3008 RMK AO2

VFR

32°C / 16°C

[Több]
Szél 240º 4kt
Látási viszonyok >10km
Időjárás -
Felhők Overcast 10000ft
Légnyomás
Módosítás -
Nyers KTPF 091835Z AUTO 24004KT 10SM OVC100 32/16 A3008 RMK AO2

VFR

32°C / 16°C

[Több]
Szél 210º 4kt
Látási viszonyok >10km
Időjárás -
Felhők Scattered Clouds 8000ft
Légnyomás
Módosítás -
Nyers KTPF 091815Z AUTO 21004KT 10SM SCT080 BKN100 32/16 A3008 RMK AO2

VFR

32°C / 17°C

[Több]
Szél 200º 5kt
Látási viszonyok >10km
Időjárás -
Felhők Scattered Clouds 7000ft
Légnyomás
Módosítás -
Nyers KTPF 091755Z AUTO 20005KT 10SM SCT070 SCT090 BKN110 32/17 A3009 RMK AO2

VFR

32°C / 16°C

[Több]
Szél 180º 4kt
Látási viszonyok >10km
Időjárás -
Felhők Scattered Clouds 10000ft
Légnyomás
Módosítás -
Nyers KTPF 091735Z AUTO 18004KT 10SM SCT100 SCT120 32/16 A3009 RMK AO2

VFR

32°C / 16°C

[Több]
Szél 170º 7kt
Látási viszonyok >10km
Időjárás -
Felhők Scattered Clouds 9500ft
Légnyomás
Módosítás -
Nyers KTPF 091715Z AUTO 17007KT 10SM SCT095 SCT120 32/16 A3010 RMK AO2

VFR

31°C / 16°C

[Több]
Szél 150º 7kt
Látási viszonyok >10km
Időjárás -
Felhők Scattered Clouds 8000ft
Légnyomás
Módosítás -
Nyers KTPF 091655Z AUTO 15007KT 10SM SCT080 BKN100 31/16 A3010 RMK AO2

VFR

32°C / 16°C

[Több]
Szél 150º 8kt
Látási viszonyok >10km
Időjárás -
Felhők Broken Clouds 9000ft
Légnyomás
Módosítás -
Nyers KTPF 091635Z AUTO 15008KT 10SM BKN090 BKN120 32/16 A3011 RMK AO2

VFR

31°C / 16°C

[Több]
Szél 150º 9kt
Látási viszonyok >10km
Időjárás -
Felhők Scattered Clouds 11000ft
Légnyomás
Módosítás -
Nyers KTPF 091615Z AUTO 15009KT 10SM SCT110 31/16 A3012 RMK AO2

VFR

31°C / 15°C

[Több]
Szél 140º 11kt
Látási viszonyok >10km
Időjárás -
Felhők Clear
Légnyomás
Módosítás -
Nyers KTPF 091555Z AUTO 14011KT 10SM CLR 31/15 A3012 RMK AO2

VFR

30°C / 17°C

[Több]
Szél 140º 10kt Gust 15kt
Látási viszonyok >10km
Időjárás -
Felhők Broken Clouds 10000ft
Légnyomás
Módosítás -
Nyers KTPF 091535Z AUTO 14010G15KT 10SM BKN100 BKN120 30/17 A3013 RMK AO2

VFR

30°C / 17°C

[Több]
Szél 140º 13kt Gust 17kt
Látási viszonyok >10km
Időjárás -
Felhők Overcast 10000ft
Légnyomás
Módosítás -
Nyers KTPF 091515Z AUTO 14013G17KT 10SM OVC100 30/17 A3013 RMK AO2

VFR

29°C / 17°C

[Több]
Szél 140º 10kt Gust 16kt
Látási viszonyok >10km
Időjárás -
Felhők Overcast 11000ft
Légnyomás
Módosítás -
Nyers KTPF 091455Z AUTO 14010G16KT 10SM OVC110 29/17 A3014 RMK AO2

VFR

28°C / 17°C

[Több]
Szél 150º 10kt
Látási viszonyok >10km
Időjárás -
Felhők Overcast 10000ft
Légnyomás
Módosítás -
Nyers KTPF 091435Z AUTO 15010KT 10SM OVC100 28/17 A3014 RMK AO2

VFR

28°C / 18°C

[Több]
Szél 160º 9kt
Látási viszonyok >10km
Időjárás -
Felhők Overcast 10000ft
Légnyomás
Módosítás -
Nyers KTPF 091415Z AUTO 16009KT 10SM OVC100 28/18 A3013 RMK AO2

VFR

27°C / 18°C

[Több]
Szél 150º 10kt Gust 17kt
Látási viszonyok >10km
Időjárás -
Felhők Overcast 10000ft
Légnyomás
Módosítás -
Nyers KTPF 091355Z AUTO 15010G17KT 10SM OVC100 27/18 A3013 RMK AO2

VFR

27°C / 19°C

[Több]
Szél 150º 11kt
Látási viszonyok >10km
Időjárás -
Felhők Broken Clouds 11000ft
Légnyomás
Módosítás -
Nyers KTPF 091335Z AUTO 15011KT 10SM BKN110 27/19 A3013 RMK AO2

VFR

26°C / 18°C

[Több]
Szél 140º 9kt Gust 14kt
Látási viszonyok >10km
Időjárás -
Felhők Scattered Clouds 11000ft
Légnyomás
Módosítás -
Nyers KTPF 091315Z AUTO 14009G14KT 10SM SCT110 26/18 A3012 RMK AO2

VFR

25°C / 18°C

[Több]
Szél 140º 8kt
Látási viszonyok >10km
Időjárás -
Felhők Broken Clouds 11000ft
Légnyomás
Módosítás -
Nyers KTPF 091255Z AUTO 14008KT 10SM BKN110 25/18 A3012 RMK AO2

Aktuális műholdas képek ezen a helyen: Tampa, Egyesült Államok

A helyszín jelölő a következő helyen van elhelyezve: Tampa. [Több]

A valós idejű műholdas kép ötvözi a nappali látható fényt az éjszakai infravörös sugárzással. Éjjel a kép nem sötét, mivel az infravörös sugárzás képes érzékelni a hőmérséklet-különbségeket. Sajnos az alacsony felhőket és a ködöt nehéz megkülönböztetni a talaj hőmérsékletétől, így az éjszaka folyamán szinte láthatatlanok lehetnek. A Meteosat európai műholdképei valós időben frissülnek minden 5 percben. A GOES-16/GOES-17 (Észak- és Dél-Amerika) és Himawari (Ázsia) képei 10 percenként frissülnek.

Radarkép és ultrarövid távú csapadék-előrejelzés a következő helyhez: Tampa

A helyzetjelző helye: Tampa. Ez az animáció bemutatja a csapadékradart az elmúlt órára vonatkozóan, valamint előrejelzést az elkövetkező 1 órára. Előfordulhat, hogy a radar a szitálást és az enyhe havazást nem észleli. A csapadék erősségét színkódok jelzik, a világoskéktől a sötétliláig.